sensor_id;sensor_type;location;lat;lon;timestamp;temperature;humidity
52439;DHT22;38359;53.150;6.504;2023-03-14T00:05:41;10.50;99.90
52439;DHT22;38359;53.150;6.504;2023-03-14T00:16:12;10.30;99.90
52439;DHT22;38359;53.150;6.504;2023-03-14T00:26:38;10.50;99.90
52439;DHT22;38359;53.150;6.504;2023-03-14T00:37:03;10.60;99.90
52439;DHT22;38359;53.150;6.504;2023-03-14T00:47:29;10.40;99.90
52439;DHT22;38359;53.150;6.504;2023-03-14T00:57:55;10.40;99.90
52439;DHT22;38359;53.150;6.504;2023-03-14T01:08:21;10.40;99.90
52439;DHT22;38359;53.150;6.504;2023-03-14T01:18:47;10.60;99.90
52439;DHT22;38359;53.150;6.504;2023-03-14T01:29:13;10.60;99.90
52439;DHT22;38359;53.150;6.504;2023-03-14T01:39:40;10.80;99.90
52439;DHT22;38359;53.150;6.504;2023-03-14T01:50:08;10.90;99.90
52439;DHT22;38359;53.150;6.504;2023-03-14T02:00:35;10.90;99.90
52439;DHT22;38359;53.150;6.504;2023-03-14T02:11:02;10.80;99.90
52439;DHT22;38359;53.150;6.504;2023-03-14T02:21:53;10.70;99.90
52439;DHT22;38359;53.150;6.504;2023-03-14T02:32:24;10.50;99.90
52439;DHT22;38359;53.150;6.504;2023-03-14T02:42:50;10.30;99.90
52439;DHT22;38359;53.150;6.504;2023-03-14T02:53:20;10.30;99.90
52439;DHT22;38359;53.150;6.504;2023-03-14T03:03:49;10.30;99.90
52439;DHT22;38359;53.150;6.504;2023-03-14T03:14:15;10.40;99.90
52439;DHT22;38359;53.150;6.504;2023-03-14T03:24:41;10.10;99.90
52439;DHT22;38359;53.150;6.504;2023-03-14T03:35:07;10.10;99.90
52439;DHT22;38359;53.150;6.504;2023-03-14T03:45:33;10.20;99.90
52439;DHT22;38359;53.150;6.504;2023-03-14T03:55:59;10.30;99.90
52439;DHT22;38359;53.150;6.504;2023-03-14T04:06:24;10.50;99.90
52439;DHT22;38359;53.150;6.504;2023-03-14T04:16:50;10.80;99.90
52439;DHT22;38359;53.150;6.504;2023-03-14T04:27:16;10.40;99.90
52439;DHT22;38359;53.150;6.504;2023-03-14T04:37:42;10.60;99.90
52439;DHT22;38359;53.150;6.504;2023-03-14T04:48:08;11.00;99.90
52439;DHT22;38359;53.150;6.504;2023-03-14T04:58:34;11.00;99.90
52439;DHT22;38359;53.150;6.504;2023-03-14T05:09:00;10.80;99.90
52439;DHT22;38359;53.150;6.504;2023-03-14T05:19:26;10.80;99.90
52439;DHT22;38359;53.150;6.504;2023-03-14T05:29:52;11.00;99.90
52439;DHT22;38359;53.150;6.504;2023-03-14T05:40:18;11.40;99.90
52439;DHT22;38359;53.150;6.504;2023-03-14T05:50:44;10.80;99.90
52439;DHT22;38359;53.150;6.504;2023-03-14T06:01:09;11.30;99.90
52439;DHT22;38359;53.150;6.504;2023-03-14T06:11:35;11.00;99.90
52439;DHT22;38359;53.150;6.504;2023-03-14T06:22:01;11.20;99.90
52439;DHT22;38359;53.150;6.504;2023-03-14T06:32:27;10.90;99.90
52439;DHT22;38359;53.150;6.504;2023-03-14T06:42:52;11.40;99.90
52439;DHT22;38359;53.150;6.504;2023-03-14T06:53:18;8.70;99.90
52439;DHT22;38359;53.150;6.504;2023-03-14T07:03:44;8.00;99.90
52439;DHT22;38359;53.150;6.504;2023-03-14T07:14:10;8.30;99.90
52439;DHT22;38359;53.150;6.504;2023-03-14T07:24:36;7.20;99.90
52439;DHT22;38359;53.150;6.504;2023-03-14T07:35:02;6.40;99.90
52439;DHT22;38359;53.150;6.504;2023-03-14T07:45:28;6.00;99.90
52439;DHT22;38359;53.150;6.504;2023-03-14T07:55:54;6.90;99.90
52439;DHT22;38359;53.150;6.504;2023-03-14T08:06:20;6.20;99.90
52439;DHT22;38359;53.150;6.504;2023-03-14T08:16:46;6.60;99.90
52439;DHT22;38359;53.150;6.504;2023-03-14T08:27:11;7.00;99.90
52439;DHT22;38359;53.150;6.504;2023-03-14T08:37:39;7.00;99.90
52439;DHT22;38359;53.150;6.504;2023-03-14T08:48:05;6.80;99.90
52439;DHT22;38359;53.150;6.504;2023-03-14T08:58:33;6.70;99.90
52439;DHT22;38359;53.150;6.504;2023-03-14T09:08:58;6.80;99.90
52439;DHT22;38359;53.150;6.504;2023-03-14T09:19:24;6.90;99.90
52439;DHT22;38359;53.150;6.504;2023-03-14T09:29:50;6.70;99.90
52439;DHT22;38359;53.150;6.504;2023-03-14T09:40:18;6.90;99.90
52439;DHT22;38359;53.150;6.504;2023-03-14T09:50:49;6.70;99.90
52439;DHT22;38359;53.150;6.504;2023-03-14T10:01:20;6.80;99.90
52439;DHT22;38359;53.150;6.504;2023-03-14T10:11:50;6.80;99.90
52439;DHT22;38359;53.150;6.504;2023-03-14T10:22:18;6.80;99.90
52439;DHT22;38359;53.150;6.504;2023-03-14T10:32:45;6.80;99.90
52439;DHT22;38359;53.150;6.504;2023-03-14T10:43:18;6.90;99.90
52439;DHT22;38359;53.150;6.504;2023-03-14T10:54:19;6.80;99.90
52439;DHT22;38359;53.150;6.504;2023-03-14T11:26:56;7.50;99.90
52439;DHT22;38359;53.150;6.504;2023-03-14T11:37:42;6.60;99.90
52439;DHT22;38359;53.150;6.504;2023-03-14T11:48:51;7.00;99.90
52439;DHT22;38359;53.150;6.504;2023-03-14T11:59:29;7.10;99.90
52439;DHT22;38359;53.150;6.504;2023-03-14T12:09:58;7.20;99.90
52439;DHT22;38359;53.150;6.504;2023-03-14T12:20:25;7.30;99.90
52439;DHT22;38359;53.150;6.504;2023-03-14T12:30:51;7.00;99.90
52439;DHT22;38359;53.150;6.504;2023-03-14T12:51:59;8.00;99.90
52439;DHT22;38359;53.150;6.504;2023-03-14T13:23:32;7.40;99.90
52439;DHT22;38359;53.150;6.504;2023-03-14T13:34:04;7.80;99.90
52439;DHT22;38359;53.150;6.504;2023-03-14T13:44:36;8.10;99.90
52439;DHT22;38359;53.150;6.504;2023-03-14T13:55:12;8.70;99.90
52439;DHT22;38359;53.150;6.504;2023-03-14T14:05:44;9.30;99.90
52439;DHT22;38359;53.150;6.504;2023-03-14T14:16:10;7.80;99.90
52439;DHT22;38359;53.150;6.504;2023-03-14T14:26:52;7.90;99.90
52439;DHT22;38359;53.150;6.504;2023-03-14T14:37:22;7.50;99.90
52439;DHT22;38359;53.150;6.504;2023-03-14T14:48:10;6.60;99.90
52439;DHT22;38359;53.150;6.504;2023-03-14T14:58:40;7.90;99.90
52439;DHT22;38359;53.150;6.504;2023-03-14T15:09:09;9.10;99.90
52439;DHT22;38359;53.150;6.504;2023-03-14T15:19:36;8.20;99.90
52439;DHT22;38359;53.150;6.504;2023-03-14T15:30:02;6.90;99.90
52439;DHT22;38359;53.150;6.504;2023-03-14T15:40:28;6.90;99.90
52439;DHT22;38359;53.150;6.504;2023-03-14T15:50:54;6.60;99.90
52439;DHT22;38359;53.150;6.504;2023-03-14T16:01:20;6.30;99.90
52439;DHT22;38359;53.150;6.504;2023-03-14T16:11:45;6.20;99.90
52439;DHT22;38359;53.150;6.504;2023-03-14T16:22:11;5.90;99.90
52439;DHT22;38359;53.150;6.504;2023-03-14T16:32:37;6.10;99.90
52439;DHT22;38359;53.150;6.504;2023-03-14T16:43:03;5.50;99.90
52439;DHT22;38359;53.150;6.504;2023-03-14T16:53:29;5.80;99.90
52439;DHT22;38359;53.150;6.504;2023-03-14T17:03:55;5.60;99.90
52439;DHT22;38359;53.150;6.504;2023-03-14T17:14:21;5.40;99.90
52439;DHT22;38359;53.150;6.504;2023-03-14T17:24:48;5.40;99.90
52439;DHT22;38359;53.150;6.504;2023-03-14T17:35:14;4.20;99.90
52439;DHT22;38359;53.150;6.504;2023-03-14T17:45:40;4.30;99.90
52439;DHT22;38359;53.150;6.504;2023-03-14T17:56:08;3.90;99.90
52439;DHT22;38359;53.150;6.504;2023-03-14T18:06:34;4.00;99.90
52439;DHT22;38359;53.150;6.504;2023-03-14T18:17:00;3.90;99.90
52439;DHT22;38359;53.150;6.504;2023-03-14T18:27:27;3.80;99.90
52439;DHT22;38359;53.150;6.504;2023-03-14T18:37:52;3.80;99.90
52439;DHT22;38359;53.150;6.504;2023-03-14T18:48:18;3.70;99.90
52439;DHT22;38359;53.150;6.504;2023-03-14T18:58:44;3.60;99.90
52439;DHT22;38359;53.150;6.504;2023-03-14T19:09:14;3.80;99.90
52439;DHT22;38359;53.150;6.504;2023-03-14T19:19:40;3.80;99.90
52439;DHT22;38359;53.150;6.504;2023-03-14T19:30:06;3.90;99.90
52439;DHT22;38359;53.150;6.504;2023-03-14T19:40:34;3.50;99.90
52439;DHT22;38359;53.150;6.504;2023-03-14T19:51:01;3.50;99.90
52439;DHT22;38359;53.150;6.504;2023-03-14T20:01:27;3.10;99.90
52439;DHT22;38359;53.150;6.504;2023-03-14T20:11:53;3.10;99.90
52439;DHT22;38359;53.150;6.504;2023-03-14T20:22:19;2.90;99.90
52439;DHT22;38359;53.150;6.504;2023-03-14T20:32:45;2.90;99.90
52439;DHT22;38359;53.150;6.504;2023-03-14T20:43:11;3.30;99.90
52439;DHT22;38359;53.150;6.504;2023-03-14T20:53:37;3.10;99.90
52439;DHT22;38359;53.150;6.504;2023-03-14T21:04:06;3.00;99.90
52439;DHT22;38359;53.150;6.504;2023-03-14T21:14:32;3.30;99.90
52439;DHT22;38359;53.150;6.504;2023-03-14T21:24:57;3.30;99.90
52439;DHT22;38359;53.150;6.504;2023-03-14T21:35:23;3.30;99.90
52439;DHT22;38359;53.150;6.504;2023-03-14T21:45:49;3.20;99.90
52439;DHT22;38359;53.150;6.504;2023-03-14T21:56:15;3.40;99.90
52439;DHT22;38359;53.150;6.504;2023-03-14T22:06:41;3.30;99.90
52439;DHT22;38359;53.150;6.504;2023-03-14T22:17:08;3.10;99.90
52439;DHT22;38359;53.150;6.504;2023-03-14T22:27:34;2.80;99.90
52439;DHT22;38359;53.150;6.504;2023-03-14T22:38:00;4.20;99.90
52439;DHT22;38359;53.150;6.504;2023-03-14T22:48:26;2.70;99.90
52439;DHT22;38359;53.150;6.504;2023-03-14T22:58:59;2.80;99.90
52439;DHT22;38359;53.150;6.504;2023-03-14T23:09:25;2.90;99.90
52439;DHT22;38359;53.150;6.504;2023-03-14T23:19:52;3.30;99.90
52439;DHT22;38359;53.150;6.504;2023-03-14T23:30:18;3.30;99.90
52439;DHT22;38359;53.150;6.504;2023-03-14T23:40:45;3.40;99.90
52439;DHT22;38359;53.150;6.504;2023-03-14T23:51:11;3.30;99.90
